createdAt,value
2023-04-17T00:02:16.852Z,1.40
2023-04-17T00:04:43.666Z,1.25
2023-04-17T00:07:11.278Z,1.08
2023-04-17T00:09:37.820Z,1.42
2023-04-17T00:12:04.420Z,1.20
2023-04-17T00:14:30.821Z,1.55
2023-04-17T00:16:57.267Z,1.30
2023-04-17T00:19:23.789Z,1.90
2023-04-17T00:21:50.495Z,2.00
2023-04-17T00:24:16.969Z,1.80
2023-04-17T00:26:43.487Z,1.77
2023-04-17T00:29:10.125Z,1.92
2023-04-17T00:31:36.769Z,1.63
2023-04-17T00:34:03.226Z,1.50
2023-04-17T00:36:32.764Z,1.50
2023-04-17T00:39:01.673Z,1.50
2023-04-17T00:41:28.230Z,1.48
2023-04-17T00:43:54.838Z,1.20
2023-04-17T00:46:22.173Z,1.05
2023-04-17T00:48:48.692Z,1.30
2023-04-17T00:51:15.608Z,1.20
2023-04-17T00:53:42.407Z,1.13
2023-04-17T00:56:09.493Z,1.00
2023-04-17T00:58:37.138Z,1.20
2023-04-17T01:01:04.452Z,1.27
2023-04-17T01:03:32.592Z,1.60
2023-04-17T01:05:59.570Z,1.00
2023-04-17T01:08:26.157Z,1.20
2023-04-17T01:10:52.601Z,1.33
2023-04-17T01:13:19.133Z,1.63
2023-04-17T01:15:46.956Z,1.30
2023-04-17T01:18:13.632Z,1.08
2023-04-17T01:20:40.100Z,1.00
2023-04-17T01:23:06.579Z,0.90
2023-04-17T01:25:33.188Z,1.00
2023-04-17T01:27:59.653Z,1.20
2023-04-17T01:30:26.221Z,1.30
2023-04-17T01:32:53.779Z,1.10
2023-04-17T01:35:20.423Z,1.25
2023-04-17T01:37:46.923Z,1.10
2023-04-17T01:40:13.688Z,1.40
2023-04-17T01:42:40.381Z,1.50
2023-04-17T01:45:07.613Z,1.35
2023-04-17T01:47:34.120Z,1.60
2023-04-17T01:50:01.039Z,1.60
2023-04-17T01:52:27.524Z,1.60
2023-04-17T01:54:56.433Z,1.90
2023-04-17T01:57:22.869Z,2.10
2023-04-17T01:59:49.444Z,1.90
2023-04-17T02:02:16.229Z,1.65
2023-04-17T02:04:42.782Z,2.10
2023-04-17T02:07:09.253Z,1.90
2023-04-17T02:09:35.949Z,2.00
2023-04-17T02:12:02.678Z,1.88
2023-04-17T02:14:30.096Z,1.75
2023-04-17T02:16:56.698Z,2.00
2023-04-17T02:19:23.151Z,2.03
2023-04-17T02:21:49.663Z,1.90
2023-04-17T02:24:16.120Z,1.60
2023-04-17T02:26:42.634Z,1.73
2023-04-17T02:29:09.135Z,1.75
2023-04-17T02:31:35.901Z,1.73
2023-04-17T02:34:02.493Z,1.60
2023-04-17T02:36:28.976Z,1.63
2023-04-17T02:38:55.389Z,1.50
2023-04-17T02:41:21.997Z,1.33
2023-04-17T02:43:48.561Z,1.20
2023-04-17T02:46:15.896Z,1.30
2023-04-17T02:48:42.335Z,1.35
2023-04-17T02:51:08.749Z,1.30
2023-04-17T02:53:35.219Z,1.20
2023-04-17T02:56:01.641Z,1.17
2023-04-17T02:58:28.116Z,1.52
2023-04-17T03:01:00.429Z,1.50
2023-04-17T03:03:27.045Z,1.50
2023-04-17T03:05:53.590Z,1.40
2023-04-17T03:08:20.033Z,1.27
2023-04-17T03:10:48.970Z,1.40
2023-04-17T03:13:15.626Z,1.95
2023-04-17T03:15:42.144Z,1.60
2023-04-17T03:18:08.670Z,1.55
2023-04-17T03:20:35.215Z,1.80
2023-04-17T03:23:01.765Z,1.80
2023-04-17T03:25:30.758Z,1.80
2023-04-17T03:27:57.310Z,1.55
2023-04-17T03:30:23.988Z,1.73
2023-04-17T03:32:50.815Z,2.00
2023-04-17T03:35:17.302Z,1.50
2023-04-17T03:37:43.733Z,2.10
2023-04-17T03:40:10.390Z,1.88
2023-04-17T03:42:36.825Z,1.98
2023-04-17T03:45:05.749Z,1.90
2023-04-17T03:47:32.317Z,1.85
2023-04-17T03:49:58.774Z,2.03
2023-04-17T03:52:25.453Z,2.17
2023-04-17T03:54:52.458Z,2.28
2023-04-17T03:57:18.925Z,2.70
2023-04-17T03:59:45.984Z,2.45
2023-04-17T04:02:12.552Z,2.28
2023-04-17T04:04:39.291Z,2.60
2023-04-17T04:07:06.033Z,2.60
2023-04-17T04:09:32.483Z,2.78
2023-04-17T04:11:58.962Z,2.80
2023-04-17T04:14:27.930Z,2.53
2023-04-17T04:16:54.931Z,2.75
2023-04-17T04:19:21.371Z,2.53
2023-04-17T04:21:50.548Z,2.83
2023-04-17T04:24:17.585Z,3.08
2023-04-17T04:26:44.393Z,3.90
2023-04-17T04:29:12.018Z,5.35
2023-04-17T04:31:39.683Z,4.13
2023-04-17T04:34:06.385Z,3.30
2023-04-17T04:36:36.218Z,3.00
2023-04-17T04:39:05.705Z,2.65
2023-04-17T04:41:33.961Z,2.58
2023-04-17T04:44:03.694Z,3.70
2023-04-17T04:46:30.673Z,3.40
2023-04-17T04:48:57.125Z,2.80
2023-04-17T04:51:23.561Z,2.67
2023-04-17T04:53:50.006Z,2.40
2023-04-17T04:56:16.502Z,2.42
2023-04-17T04:58:42.926Z,3.00
2023-04-17T05:01:09.457Z,2.42
2023-04-17T05:03:37.341Z,2.42
2023-04-17T05:06:04.117Z,3.10
2023-04-17T05:08:30.608Z,3.80
2023-04-17T05:10:57.092Z,4.22
2023-04-17T05:13:23.754Z,4.10
2023-04-17T05:15:50.733Z,4.35
2023-04-17T05:18:17.245Z,4.70
2023-04-17T05:20:43.703Z,4.72
2023-04-17T05:23:10.404Z,3.80
2023-04-17T05:25:36.892Z,4.13
2023-04-17T05:28:03.360Z,3.88
2023-04-17T05:30:29.816Z,3.85
2023-04-17T05:32:56.504Z,5.07
2023-04-17T05:35:23.006Z,5.28
2023-04-17T05:37:52.306Z,8.52
2023-04-17T05:40:21.301Z,5.50
2023-04-17T05:42:47.858Z,3.17
2023-04-17T05:45:15.100Z,3.45
2023-04-17T05:47:41.947Z,2.55
2023-04-17T05:50:08.876Z,3.40
2023-04-17T05:52:36.974Z,3.13
2023-04-17T05:55:05.480Z,2.65
2023-04-17T05:57:31.898Z,2.50
2023-04-17T05:59:58.365Z,2.55
2023-04-17T06:02:25.042Z,2.40
2023-04-17T06:04:52.337Z,2.25
2023-04-17T06:07:19.612Z,2.58
2023-04-17T06:09:46.297Z,2.65
2023-04-17T06:12:16.173Z,2.72
2023-04-17T06:14:45.100Z,2.70
2023-04-17T06:17:12.449Z,2.75
2023-04-17T06:19:41.469Z,2.80
2023-04-17T06:22:08.056Z,2.92
2023-04-17T06:24:34.560Z,2.97
2023-04-17T06:27:01.088Z,3.50
2023-04-17T06:29:29.947Z,4.03
2023-04-17T06:31:56.412Z,5.15
2023-04-17T06:34:22.853Z,5.22
2023-04-17T06:36:51.835Z,7.90
2023-04-17T06:39:18.324Z,8.65
2023-04-17T06:41:44.875Z,8.88
2023-04-17T06:44:11.457Z,8.95
2023-04-17T06:46:37.938Z,8.18
2023-04-17T06:49:04.392Z,9.32
2023-04-17T06:51:30.882Z,10.20
2023-04-17T06:53:57.612Z,10.38
2023-04-17T06:56:24.331Z,11.43
2023-04-17T06:58:51.148Z,10.95
2023-04-17T07:01:17.710Z,11.02
2023-04-17T07:03:44.715Z,9.63
2023-04-17T07:06:11.359Z,9.90
2023-04-17T07:08:37.930Z,10.15
2023-04-17T07:11:04.370Z,9.63
2023-04-17T07:13:34.150Z,9.25
2023-04-17T07:16:01.384Z,9.50
2023-04-17T07:18:29.606Z,9.20
2023-04-17T07:20:56.746Z,9.60
2023-04-17T07:23:23.719Z,9.82
2023-04-17T07:25:50.218Z,9.45
2023-04-17T07:28:17.320Z,9.48
2023-04-17T07:30:43.860Z,9.82
2023-04-17T07:33:10.698Z,9.60
2023-04-17T07:35:37.393Z,10.65
2023-04-17T07:38:04.389Z,10.52
2023-04-17T07:40:31.509Z,10.68
2023-04-17T07:42:58.050Z,10.13
2023-04-17T07:45:24.583Z,10.77
2023-04-17T07:47:51.499Z,9.93
2023-04-17T07:50:18.069Z,9.75
2023-04-17T07:52:44.512Z,9.90
2023-04-17T07:55:11.060Z,9.70
2023-04-17T07:57:37.500Z,10.18
2023-04-17T08:00:07.932Z,10.20
2023-04-17T08:02:37.060Z,9.68
2023-04-17T08:05:04.481Z,10.43
2023-04-17T08:07:31.083Z,9.48
2023-04-17T08:09:57.582Z,9.90
2023-04-17T08:12:24.049Z,9.63
2023-04-17T08:14:50.542Z,9.65
2023-04-17T08:17:20.295Z,10.13
2023-04-17T08:19:46.997Z,9.40
2023-04-17T08:22:14.097Z,9.10
2023-04-17T08:24:40.653Z,9.02
2023-04-17T08:27:07.914Z,9.43
2023-04-17T08:29:34.469Z,9.70
2023-04-17T08:32:14.077Z,10.15
2023-04-17T08:34:41.688Z,9.40
2023-04-17T08:37:08.109Z,10.07
2023-04-17T08:39:34.596Z,9.38
2023-04-17T08:42:03.100Z,9.35
2023-04-17T08:44:29.560Z,9.93
2023-04-17T08:46:57.961Z,9.90
2023-04-17T08:49:31.132Z,10.20
2023-04-17T08:51:57.622Z,10.15
2023-04-17T08:54:24.112Z,10.40
2023-04-17T08:56:50.690Z,10.15
2023-04-17T08:59:17.955Z,10.50
2023-04-17T09:02:03.466Z,10.27
2023-04-17T09:04:40.831Z,10.20
2023-04-17T09:07:07.944Z,10.38
2023-04-17T09:09:50.653Z,10.75
2023-04-17T09:12:17.685Z,10.20
2023-04-17T09:14:44.518Z,9.15
2023-04-17T09:17:11.029Z,10.10
2023-04-17T09:22:20.666Z,10.68
2023-04-17T09:24:48.184Z,10.90
2023-04-17T09:27:21.437Z,10.40
2023-04-17T09:29:58.170Z,11.00
2023-04-17T09:32:26.094Z,10.88
2023-04-17T09:35:00.092Z,9.85
2023-04-17T09:37:27.313Z,9.70
2023-04-17T09:39:57.647Z,9.50
2023-04-17T09:42:24.084Z,9.15
2023-04-17T09:44:50.644Z,10.02
2023-04-17T09:47:20.154Z,8.77
2023-04-17T09:49:50.248Z,9.13
2023-04-17T09:52:16.870Z,9.25
2023-04-17T09:54:43.473Z,8.95
2023-04-17T09:57:10.608Z,8.45
2023-04-17T09:59:41.555Z,8.38
2023-04-17T10:02:09.580Z,8.30
2023-04-17T10:04:37.022Z,8.40
2023-04-17T10:07:04.487Z,7.78
2023-04-17T10:09:31.076Z,8.18
2023-04-17T10:11:58.376Z,8.38
2023-04-17T10:14:26.469Z,7.93
2023-04-17T10:16:53.742Z,7.47
2023-04-17T10:19:32.965Z,7.55
2023-04-17T10:22:20.816Z,7.50
2023-04-17T10:24:54.251Z,7.63
2023-04-17T10:27:31.051Z,7.57
2023-04-17T10:30:09.506Z,7.68
2023-04-17T10:32:36.453Z,7.75
2023-04-17T10:35:22.865Z,7.40
2023-04-17T10:37:52.347Z,8.15
2023-04-17T10:40:26.320Z,7.53
2023-04-17T10:43:11.737Z,7.28
2023-04-17T10:45:54.517Z,7.07
2023-04-17T10:48:23.898Z,7.40
2023-04-17T10:50:50.509Z,6.60
2023-04-17T10:53:35.651Z,6.20
2023-04-17T10:56:02.760Z,6.20
2023-04-17T10:58:31.472Z,6.40
2023-04-17T11:01:02.158Z,5.88
2023-04-17T11:03:29.629Z,5.78
2023-04-17T11:05:56.105Z,6.20
2023-04-17T11:08:23.605Z,6.60
2023-04-17T11:10:54.268Z,6.07
2023-04-17T11:13:20.843Z,5.57
2023-04-17T11:15:47.534Z,5.47
2023-04-17T11:18:16.504Z,5.28
2023-04-17T11:20:43.002Z,6.10
2023-04-17T11:23:09.623Z,5.65
2023-04-17T11:25:37.249Z,6.07
2023-04-17T11:28:05.479Z,5.00
2023-04-17T11:30:33.086Z,5.10
2023-04-17T11:33:04.290Z,4.50
2023-04-17T11:35:38.253Z,5.30
2023-04-17T11:40:30.927Z,4.65
2023-04-17T11:42:59.668Z,4.20
2023-04-17T11:45:26.069Z,4.30
2023-04-17T11:47:52.588Z,3.60
2023-04-17T11:50:19.210Z,3.47
2023-04-17T11:52:47.734Z,3.90
2023-04-17T11:55:14.852Z,3.35
2023-04-17T11:57:43.309Z,3.33
2023-04-17T12:00:14.397Z,3.70
2023-04-17T12:02:40.928Z,4.05
2023-04-17T12:05:14.282Z,3.10
2023-04-17T12:07:40.869Z,2.60
2023-04-17T12:10:08.105Z,3.20
2023-04-17T12:12:34.577Z,2.80
2023-04-17T12:15:03.549Z,3.20
2023-04-17T12:17:30.658Z,3.08
2023-04-17T12:19:57.081Z,2.45
2023-04-17T12:22:23.508Z,3.10
2023-04-17T12:24:50.107Z,3.53
2023-04-17T12:27:17.250Z,3.05
2023-04-17T12:29:44.764Z,3.38
2023-04-17T12:32:11.587Z,3.17
2023-04-17T12:34:40.608Z,3.50
2023-04-17T12:37:07.087Z,3.58
2023-04-17T12:39:33.533Z,4.07
2023-04-17T12:41:59.899Z,3.60
2023-04-17T12:44:26.331Z,4.30
2023-04-17T12:46:52.671Z,3.70
2023-04-17T12:49:20.532Z,3.83
2023-04-17T12:51:47.002Z,4.03
2023-04-17T12:54:13.579Z,4.40
2023-04-17T12:56:40.415Z,4.03
2023-04-17T12:59:06.816Z,3.80
2023-04-17T13:01:33.237Z,3.70
2023-04-17T13:03:59.871Z,4.35
2023-04-17T13:06:28.330Z,4.20
2023-04-17T13:08:54.734Z,4.28
2023-04-17T13:11:21.795Z,3.95
2023-04-17T13:13:48.215Z,3.60
2023-04-17T13:16:14.663Z,3.88
2023-04-17T13:18:41.122Z,3.63
2023-04-17T13:21:08.098Z,3.67
2023-04-17T13:23:34.479Z,4.10
2023-04-17T13:26:00.901Z,4.00
2023-04-17T13:28:27.243Z,3.72
2023-04-17T13:30:53.639Z,3.72
2023-04-17T13:33:20.343Z,4.10
2023-04-17T13:35:46.787Z,4.15
2023-04-17T13:38:13.267Z,3.53
2023-04-17T13:40:40.848Z,3.55
2023-04-17T13:43:07.217Z,3.47
2023-04-17T13:45:36.156Z,3.85
2023-04-17T13:48:02.703Z,3.70
2023-04-17T13:50:29.187Z,3.60
2023-04-17T13:52:55.645Z,4.18
2023-04-17T13:55:22.029Z,4.10
2023-04-17T13:57:48.483Z,4.32
2023-04-17T14:00:15.144Z,4.07
2023-04-17T14:02:42.684Z,4.10
2023-04-17T14:05:09.743Z,3.60
2023-04-17T14:07:37.145Z,4.28
2023-04-17T14:10:06.247Z,4.32
2023-04-17T14:12:32.587Z,4.25
2023-04-17T14:14:58.925Z,4.38
2023-04-17T14:17:25.496Z,4.28
2023-04-17T14:19:52.543Z,4.20
2023-04-17T14:22:19.137Z,4.28
2023-04-17T14:24:45.598Z,4.13
2023-04-17T14:27:12.020Z,3.90
2023-04-17T14:29:38.418Z,4.03
2023-04-17T14:32:04.954Z,4.30
2023-04-17T14:34:31.261Z,4.00
2023-04-17T14:36:58.389Z,4.68
2023-04-17T14:39:24.773Z,3.95
2023-04-17T14:41:51.227Z,3.65
2023-04-17T14:44:17.606Z,3.65
2023-04-17T14:46:44.222Z,3.67
2023-04-17T14:49:10.922Z,3.65
2023-04-17T14:51:37.543Z,3.83
2023-04-17T14:54:06.516Z,3.90
2023-04-17T14:56:33.589Z,4.32
2023-04-17T14:59:00.461Z,3.53
2023-04-17T15:01:26.967Z,3.80
2023-04-17T15:03:53.718Z,3.65
2023-04-17T15:06:20.401Z,3.88
2023-04-17T15:08:46.740Z,3.30
2023-04-17T15:11:13.187Z,3.08
2023-04-17T15:13:40.477Z,3.60
2023-04-17T15:16:11.234Z,3.40
2023-04-17T15:18:39.414Z,3.28
2023-04-17T15:21:06.065Z,3.58
2023-04-17T15:23:34.515Z,3.58
2023-04-17T15:26:01.358Z,3.45
2023-04-17T15:28:27.844Z,3.88
2023-04-17T15:30:55.492Z,3.50
2023-04-17T15:33:21.921Z,3.53
2023-04-17T15:35:53.437Z,3.80
2023-04-17T15:38:19.813Z,3.53
2023-04-17T15:40:46.218Z,3.65
2023-04-17T15:43:12.594Z,3.80
2023-04-17T15:45:39.146Z,3.83
2023-04-17T15:48:05.899Z,3.92
2023-04-17T15:50:32.507Z,3.72
2023-04-17T15:52:58.845Z,4.20
2023-04-17T15:55:25.530Z,4.00
2023-04-17T15:57:51.921Z,3.90
2023-04-17T16:00:18.659Z,3.88
2023-04-17T16:02:48.191Z,3.85
2023-04-17T16:05:15.302Z,3.72
2023-04-17T16:07:41.687Z,3.85
2023-04-17T16:10:14.321Z,2.97
2023-04-17T16:12:44.498Z,2.75
2023-04-17T16:15:15.099Z,2.42
2023-04-17T16:17:42.016Z,2.55
2023-04-17T16:20:08.929Z,2.42
2023-04-17T16:22:35.372Z,2.25
2023-04-17T16:25:01.870Z,2.50
2023-04-17T16:27:29.225Z,2.63
2023-04-17T16:29:55.657Z,2.28
2023-04-17T16:32:24.538Z,2.22
2023-04-17T16:34:54.167Z,2.08
2023-04-17T16:37:20.699Z,2.30
2023-04-17T16:39:47.345Z,2.40
2023-04-17T16:42:14.464Z,2.10
2023-04-17T16:44:40.946Z,2.50
2023-04-17T16:47:13.144Z,2.10
2023-04-17T16:49:41.030Z,2.53
2023-04-17T16:52:10.357Z,1.88
2023-04-17T16:54:36.846Z,2.28
2023-04-17T16:57:03.474Z,2.78
2023-04-17T16:59:29.882Z,1.90
2023-04-17T17:01:56.403Z,2.63
2023-04-17T17:04:22.896Z,2.17
2023-04-17T17:06:49.437Z,2.47
2023-04-17T17:09:15.913Z,2.30
2023-04-17T17:11:42.312Z,2.78
2023-04-17T17:14:08.735Z,2.78
2023-04-17T17:16:35.260Z,3.83
2023-04-17T17:19:01.905Z,4.30
2023-04-17T17:21:28.892Z,4.20
2023-04-17T17:23:57.765Z,3.90
2023-04-17T17:26:24.341Z,3.80
2023-04-17T17:28:54.233Z,3.65
2023-04-17T17:31:20.803Z,4.05
2023-04-17T17:33:50.145Z,3.65
2023-04-17T17:36:16.845Z,3.22
2023-04-17T17:38:43.597Z,3.90
2023-04-17T17:41:10.127Z,4.07
2023-04-17T17:43:36.603Z,3.10
2023-04-17T17:46:03.132Z,3.60
2023-04-17T17:48:29.676Z,3.45
2023-04-17T17:50:57.111Z,4.05
2023-04-17T17:53:26.045Z,3.67
2023-04-17T17:55:54.539Z,2.85
2023-04-17T17:58:21.903Z,2.90
2023-04-17T18:00:51.579Z,3.22
2023-04-17T18:03:18.351Z,3.28
2023-04-17T18:05:45.785Z,3.17
2023-04-17T18:08:14.893Z,3.00
2023-04-17T18:10:41.297Z,2.67
2023-04-17T18:13:07.841Z,2.88
2023-04-17T18:15:35.564Z,2.58
2023-04-17T18:18:02.151Z,2.90
2023-04-17T18:20:29.060Z,2.75
2023-04-17T18:22:55.764Z,2.72
2023-04-17T18:25:22.178Z,2.45
2023-04-17T18:27:48.630Z,2.67
2023-04-17T18:30:15.365Z,2.80
2023-04-17T18:32:41.823Z,3.22
2023-04-17T18:35:08.607Z,2.72
2023-04-17T18:37:35.019Z,2.80
2023-04-17T18:40:01.505Z,2.85
2023-04-17T18:42:27.908Z,3.17
2023-04-17T18:44:54.293Z,2.83
2023-04-17T18:47:20.678Z,2.95
2023-04-17T18:49:51.461Z,3.17
2023-04-17T18:52:17.828Z,2.90
2023-04-17T18:54:44.267Z,3.13
2023-04-17T18:57:10.625Z,3.67
2023-04-17T18:59:40.995Z,4.13
2023-04-17T19:02:11.543Z,5.97
2023-04-17T19:04:38.033Z,5.90
2023-04-17T19:07:04.409Z,5.00
2023-04-17T19:09:30.794Z,4.25
2023-04-17T19:11:58.479Z,4.32
2023-04-17T19:14:25.069Z,4.20
2023-04-17T19:16:52.077Z,3.40
2023-04-17T19:19:18.575Z,3.80
2023-04-17T19:21:44.941Z,4.22
2023-04-17T19:24:11.328Z,4.07
2023-04-17T19:26:37.908Z,3.83
2023-04-17T19:29:05.027Z,3.85
2023-04-17T19:31:31.913Z,5.05
2023-04-17T19:33:58.563Z,5.30
2023-04-17T19:36:24.919Z,9.00
2023-04-17T19:38:53.157Z,6.57
2023-04-17T19:41:20.129Z,5.95
2023-04-17T19:43:47.196Z,4.88
2023-04-17T19:46:14.027Z,4.68
2023-04-17T19:48:42.147Z,4.47
2023-04-17T19:51:08.511Z,4.18
2023-04-17T19:53:35.785Z,4.40
2023-04-17T19:56:02.440Z,4.43
2023-04-17T19:58:32.705Z,4.28
2023-04-17T20:00:59.217Z,4.55
2023-04-17T20:03:26.223Z,4.78
2023-04-17T20:05:52.826Z,5.63
2023-04-17T20:08:19.302Z,6.25
2023-04-17T20:10:45.752Z,5.60
2023-04-17T20:13:14.538Z,6.10
2023-04-17T20:15:41.043Z,7.88
2023-04-17T20:18:08.605Z,7.43
2023-04-17T20:20:36.667Z,6.35
2023-04-17T20:23:03.510Z,4.65
2023-04-17T20:25:30.359Z,4.85
2023-04-17T20:27:56.892Z,4.72
2023-04-17T20:30:23.481Z,4.43
2023-04-17T20:32:53.021Z,5.05
2023-04-17T20:35:23.583Z,6.90
2023-04-17T20:37:51.715Z,7.07
2023-04-17T20:40:18.504Z,5.25
2023-04-17T20:42:50.439Z,4.65
2023-04-17T20:45:16.887Z,4.93
2023-04-17T20:47:55.771Z,5.50
2023-04-17T20:50:23.179Z,5.63
2023-04-17T20:52:49.577Z,5.88
2023-04-17T20:55:18.236Z,5.88
2023-04-17T20:57:44.986Z,5.85
2023-04-17T21:00:12.126Z,6.68
2023-04-17T21:02:38.718Z,7.03
2023-04-17T21:05:06.060Z,6.35
2023-04-17T21:07:32.404Z,5.10
2023-04-17T21:09:58.737Z,4.57
2023-04-17T21:12:25.245Z,4.82
2023-04-17T21:14:52.099Z,4.80
2023-04-17T21:17:18.527Z,4.63
2023-04-17T21:19:45.972Z,4.85
2023-04-17T21:22:13.052Z,4.63
2023-04-17T21:24:39.655Z,4.60
2023-04-17T21:27:06.021Z,4.68
2023-04-17T21:29:32.564Z,4.57
2023-04-17T21:31:59.162Z,4.68
2023-04-17T21:34:25.704Z,4.70
2023-04-17T21:36:55.230Z,4.55
2023-04-17T21:39:21.785Z,7.43
2023-04-17T21:41:48.266Z,6.72
2023-04-17T21:44:15.151Z,5.82
2023-04-17T21:46:43.581Z,7.05
2023-04-17T21:49:09.940Z,8.25
2023-04-17T21:51:36.659Z,8.35
2023-04-17T21:54:04.035Z,16.52
2023-04-17T21:56:30.933Z,23.80
2023-04-17T21:58:57.310Z,20.85
2023-04-17T22:01:23.790Z,11.48
2023-04-17T22:03:50.271Z,8.00
2023-04-17T22:06:16.640Z,7.60
2023-04-17T22:08:43.043Z,7.63
2023-04-17T22:11:09.581Z,7.22
2023-04-17T22:13:36.186Z,7.22
2023-04-17T22:16:03.260Z,8.00
2023-04-17T22:18:29.689Z,7.15
2023-04-17T22:20:58.487Z,6.70
2023-04-17T22:23:24.870Z,5.95
2023-04-17T22:25:51.332Z,6.03
2023-04-17T22:28:17.777Z,6.47
2023-04-17T22:30:44.200Z,5.72
2023-04-17T22:33:10.682Z,5.22
2023-04-17T22:35:37.060Z,5.25
2023-04-17T22:38:03.477Z,4.90
2023-04-17T22:40:30.172Z,4.97
2023-04-17T22:42:56.572Z,4.97
2023-04-17T22:45:22.904Z,4.93
2023-04-17T22:47:49.318Z,4.65
2023-04-17T22:50:15.770Z,4.40
2023-04-17T22:52:42.182Z,4.10
2023-04-17T22:55:08.717Z,4.03
2023-04-17T22:57:35.583Z,4.20
2023-04-17T23:00:02.085Z,4.15
2023-04-17T23:02:31.039Z,3.38
2023-04-17T23:04:57.512Z,4.18
2023-04-17T23:07:24.017Z,4.15
2023-04-17T23:09:50.381Z,4.15
2023-04-17T23:12:16.733Z,3.97
2023-04-17T23:14:44.243Z,4.78
2023-04-17T23:17:10.618Z,4.80
2023-04-17T23:19:36.991Z,4.63
2023-04-17T23:22:06.099Z,4.70
2023-04-17T23:24:34.192Z,4.25
2023-04-17T23:27:01.878Z,5.07
2023-04-17T23:29:28.815Z,4.32
2023-04-17T23:31:55.270Z,4.47
2023-04-17T23:34:22.023Z,4.38
2023-04-17T23:36:48.463Z,4.47
2023-04-17T23:39:14.842Z,5.05
2023-04-17T23:41:42.190Z,5.45
2023-04-17T23:44:09.530Z,4.65
2023-04-17T23:46:36.108Z,4.65
2023-04-17T23:49:03.199Z,4.78
2023-04-17T23:51:29.773Z,5.00
2023-04-17T23:53:57.261Z,4.90
2023-04-17T23:56:23.714Z,5.20
2023-04-17T23:58:50.276Z,5.13
